Time;durP1;ratioP1;P1;durP2;ratioP2;P2;SDS_P1;SDS_P2;PMS_P1;PMS_P2;Temp;Humidity;BMP_temperature;BMP_pressure;BME280_temperature;BME280_humidity;BME280_pressure;Samples;Min_cycle;Max_cycle;Signal;HPM_P1;HPM_P2
2022/08/26 00:01:17;;;;;;;21.67;7.47;;;24.60;99.90;;;;;;5088643;28;20574;-71
2022/08/26 00:03:44;;;;;;;11.70;6.75;;;24.60;99.90;;;;;;5089755;28;20237;-71
2022/08/26 00:06:18;;;;;;;13.48;6.43;;;24.50;99.90;;;;;;5090055;28;20238;-71
2022/08/26 00:08:46;;;;;;;17.13;6.70;;;24.50;99.90;;;;;;5089804;28;20206;-71
2022/08/26 00:11:22;;;;;;;14.85;7.13;;;24.50;99.90;;;;;;5089395;28;20680;-71
2022/08/26 00:13:49;;;;;;;16.23;7.53;;;24.40;99.90;;;;;;5102887;28;20251;-71
2022/08/26 00:16:16;;;;;;;18.27;7.00;;;24.40;99.90;;;;;;5109636;27;20657;-71
2022/08/26 00:18:42;;;;;;;12.18;7.00;;;24.40;99.90;;;;;;5090459;28;20557;-71
2022/08/26 00:21:15;;;;;;;13.65;7.40;;;24.40;99.90;;;;;;5089345;28;20695;-71
2022/08/26 00:23:42;;;;;;;18.10;7.93;;;24.40;99.90;;;;;;5089113;28;20692;-71
2022/08/26 00:26:17;;;;;;;11.93;7.82;;;24.40;99.90;;;;;;5106404;28;20234;-72
2022/08/26 00:28:44;;;;;;;16.17;6.97;;;24.40;99.90;;;;;;5110091;28;20202;-72
2022/08/26 00:31:16;;;;;;;17.65;7.53;;;24.30;99.90;;;;;;5109446;27;20217;-71
2022/08/26 00:33:44;;;;;;;12.75;7.28;;;24.30;99.90;;;;;;5094723;28;20206;-72
2022/08/26 00:36:16;;;;;;;11.48;7.22;;;24.30;99.90;;;;;;5109766;28;20428;-72
2022/08/26 00:38:43;;;;;;;13.50;7.05;;;24.30;99.90;;;;;;5109954;28;20221;-71
2022/08/26 00:41:10;;;;;;;13.77;7.40;;;24.30;99.90;;;;;;5109682;28;20301;-72
2022/08/26 00:43:38;;;;;;;15.65;7.38;;;24.30;99.90;;;;;;5109332;28;20238;-72
2022/08/26 00:46:11;;;;;;;12.50;7.13;;;24.30;99.90;;;;;;5109409;28;20213;-72
2022/08/26 00:48:43;;;;;;;15.50;7.55;;;24.20;99.90;;;;;;5109906;27;20194;-72
2022/08/26 00:51:16;;;;;;;12.57;7.53;;;24.30;99.90;;;;;;5108948;28;20628;-73
2022/08/26 00:53:53;;;;;;;16.50;7.25;;;24.20;99.90;;;;;;5109147;28;20202;-73
2022/08/26 00:56:25;;;;;;;14.13;7.90;;;24.20;99.90;;;;;;5103856;28;20207;-73
2022/08/26 00:58:56;;;;;;;16.77;7.35;;;24.20;99.90;;;;;;5099600;28;20209;-72
2022/08/26 01:01:24;;;;;;;11.90;6.97;;;24.20;99.90;;;;;;5092637;28;20584;-72
2022/08/26 01:03:54;;;;;;;12.30;7.22;;;24.20;99.90;;;;;;5088752;28;20238;-73
2022/08/26 01:06:21;;;;;;;22.88;7.68;;;24.20;99.90;;;;;;5088469;28;20263;-73
2022/08/26 01:08:48;;;;;;;13.25;7.40;;;24.20;99.90;;;;;;5088758;28;20591;-73
2022/08/26 01:11:15;;;;;;;12.25;7.15;;;24.10;99.90;;;;;;5088539;28;20211;-73
2022/08/26 01:13:42;;;;;;;12.05;7.18;;;24.10;99.90;;;;;;5090894;28;20199;-73
2022/08/26 01:16:14;;;;;;;11.98;7.57;;;24.10;99.90;;;;;;5087827;28;20206;-73
2022/08/26 01:18:42;;;;;;;20.13;7.97;;;24.10;99.90;;;;;;5088069;28;20680;-72
2022/08/26 01:21:16;;;;;;;14.48;7.22;;;24.10;99.90;;;;;;5088115;28;20221;-72
2022/08/26 01:23:48;;;;;;;16.17;8.93;;;24.10;99.90;;;;;;5101507;28;20226;-72
2022/08/26 01:26:18;;;;;;;15.85;7.60;;;24.10;99.90;;;;;;5108253;28;20194;-72
2022/08/26 01:28:46;;;;;;;9.68;8.18;;;24.10;99.90;;;;;;5108650;28;20281;-72
2022/08/26 01:31:18;;;;;;;12.57;7.63;;;24.10;99.90;;;;;;5107756;28;20198;-72
2022/08/26 01:33:51;;;;;;;13.65;7.90;;;24.00;99.90;;;;;;5108176;28;20194;-72
2022/08/26 01:36:20;;;;;;;14.52;7.82;;;24.00;99.90;;;;;;5108468;28;20201;-72
2022/08/26 01:38:48;;;;;;;12.95;7.80;;;24.00;99.90;;;;;;5102068;28;20567;-72
2022/08/26 01:41:25;;;;;;;12.35;7.53;;;23.90;99.90;;;;;;5087685;28;20696;-71
2022/08/26 01:43:55;;;;;;;16.15;7.80;;;23.90;99.90;;;;;;5101258;28;20277;-72
2022/08/26 01:46:23;;;;;;;16.45;8.13;;;24.00;99.90;;;;;;5107588;28;20200;-71
2022/08/26 01:48:51;;;;;;;12.27;8.20;;;23.90;99.90;;;;;;5107926;28;20212;-71
2022/08/26 01:51:26;;;;;;;15.02;8.63;;;23.90;99.90;;;;;;5107614;28;20245;-71
2022/08/26 01:53:55;;;;;;;11.18;7.78;;;23.90;99.90;;;;;;5091382;28;20608;-71
2022/08/26 01:56:23;;;;;;;16.58;8.13;;;24.00;99.90;;;;;;5087575;28;20214;-71
2022/08/26 01:58:53;;;;;;;12.57;8.15;;;23.90;99.90;;;;;;5088133;28;20289;-71
2022/08/26 02:01:24;;;;;;;12.20;8.07;;;23.90;99.90;;;;;;5098101;28;20652;-71
2022/08/26 02:03:56;;;;;;;12.05;7.90;;;23.90;99.90;;;;;;5107525;28;20230;-71
2022/08/26 02:06:23;;;;;;;13.82;7.65;;;23.90;99.90;;;;;;5107658;28;20566;-71
2022/08/26 02:08:54;;;;;;;13.85;7.55;;;23.90;99.90;;;;;;5107859;28;20212;-71
2022/08/26 02:11:25;;;;;;;9.05;8.15;;;23.90;99.90;;;;;;5087288;28;20555;-71
2022/08/26 02:13:56;;;;;;;12.98;8.02;;;23.80;99.90;;;;;;5101288;28;20217;-71
2022/08/26 02:16:27;;;;;;;12.50;8.10;;;23.80;99.90;;;;;;5107441;28;20190;-71
2022/08/26 02:18:55;;;;;;;10.68;8.10;;;23.80;99.90;;;;;;5107972;28;20194;-71
2022/08/26 02:21:22;;;;;;;12.85;7.93;;;23.80;99.90;;;;;;5107780;28;20220;-71
2022/08/26 02:23:50;;;;;;;13.45;8.00;;;23.70;99.90;;;;;;5094896;28;20242;-71
2022/08/26 02:26:27;;;;;;;10.85;8.02;;;23.70;99.90;;;;;;5111920;28;20300;-72
2022/08/26 02:28:59;;;;;;;15.23;8.13;;;23.70;99.90;;;;;;5112114;28;20307;-72
2022/08/26 02:31:26;;;;;;;14.18;8.30;;;23.70;99.90;;;;;;5111545;28;20205;-71
2022/08/26 02:33:53;;;;;;;11.50;8.02;;;23.70;99.90;;;;;;5112130;28;20206;-71
2022/08/26 02:36:21;;;;;;;8.90;7.72;;;23.70;99.90;;;;;;5111573;28;20661;-71
2022/08/26 02:38:48;;;;;;;16.23;8.27;;;23.70;99.90;;;;;;5105306;28;20190;-71
2022/08/26 02:41:24;;;;;;;13.73;8.60;;;23.60;99.90;;;;;;5091309;28;20217;-72
2022/08/26 02:43:52;;;;;;;9.30;8.38;;;23.60;99.90;;;;;;5104539;28;20248;-72
2022/08/26 02:46:19;;;;;;;16.35;8.10;;;23.60;99.90;;;;;;5111362;28;20202;-72
2022/08/26 02:48:46;;;;;;;13.95;8.73;;;23.60;99.90;;;;;;5111679;28;20198;-72
2022/08/26 02:51:22;;;;;;;10.60;7.70;;;23.60;99.90;;;;;;5111116;28;20235;-72
2022/08/26 02:53:49;;;;;;;14.85;9.00;;;23.60;99.90;;;;;;5111637;28;20220;-71
2022/08/26 02:56:24;;;;;;;15.93;8.23;;;23.60;99.90;;;;;;5111587;28;20225;-71
2022/08/26 02:58:53;;;;;;;13.48;7.88;;;23.60;99.90;;;;;;5111583;28;20208;-70
2022/08/26 03:01:31;;;;;;;18.35;8.77;;;23.50;99.90;;;;;;5110871;27;20210;-70
2022/08/26 03:03:59;;;;;;;12.32;7.85;;;23.60;99.90;;;;;;5111430;28;20236;-73
2022/08/26 03:06:26;;;;;;;15.60;8.10;;;23.50;99.90;;;;;;5108088;28;20206;-70
2022/08/26 03:08:54;;;;;;;15.70;8.52;;;23.50;99.90;;;;;;5089310;28;20226;-70
2022/08/26 03:11:24;;;;;;;13.00;7.90;;;23.50;99.90;;;;;;5103192;28;20206;-70
2022/08/26 03:13:54;;;;;;;13.15;7.97;;;23.50;99.90;;;;;;5108430;28;20959;-70
2022/08/26 03:16:21;;;;;;;14.60;8.55;;;23.50;99.90;;;;;;5107978;28;20202;-70
2022/08/26 03:18:48;;;;;;;19.75;8.52;;;23.50;99.90;;;;;;5107269;28;20205;-70
2022/08/26 03:21:19;;;;;;;12.25;8.02;;;23.50;99.90;;;;;;5108119;28;20206;-70
2022/08/26 03:23:47;;;;;;;11.57;8.20;;;23.50;99.90;;;;;;5108529;27;20226;-70
2022/08/26 03:26:35;;;;;;;11.93;8.15;;;23.50;99.90;;;;;;5108759;28;20212;-69
2022/08/26 03:31:47;;;;;;;12.77;8.30;;;23.50;99.90;;;;;;5108056;28;20268;-70
2022/08/26 03:34:15;;;;;;;15.63;8.13;;;23.40;99.90;;;;;;5108789;28;20209;-70
2022/08/26 03:36:42;;;;;;;12.48;8.20;;;23.40;99.90;;;;;;5107533;28;20790;-70
2022/08/26 03:39:09;;;;;;;14.10;8.13;;;23.50;99.90;;;;;;5099653;28;20635;-70
2022/08/26 03:41:36;;;;;;;12.10;8.70;;;23.40;99.90;;;;;;5088114;28;20226;-70
2022/08/26 03:44:05;;;;;;;18.33;9.18;;;23.40;99.90;;;;;;5103165;28;20244;-70
2022/08/26 03:46:32;;;;;;;11.52;8.50;;;23.40;99.90;;;;;;5090004;28;20207;-70
2022/08/26 03:49:00;;;;;;;15.38;9.15;;;23.40;99.90;;;;;;5106826;28;20202;-70
2022/08/26 03:51:39;;;;;;;17.77;9.68;;;23.30;99.90;;;;;;5092473;28;20231;-70
2022/08/26 03:54:07;;;;;;;11.55;8.23;;;23.30;99.90;;;;;;5102794;28;20202;-70
2022/08/26 03:56:35;;;;;;;13.35;8.52;;;23.30;99.90;;;;;;5108014;27;20213;-70
2022/08/26 03:59:02;;;;;;;15.02;8.85;;;23.40;99.90;;;;;;5107934;28;20959;-70
2022/08/26 04:01:33;;;;;;;15.15;8.75;;;23.30;99.90;;;;;;5107403;28;20206;-70
2022/08/26 04:04:00;;;;;;;15.35;8.77;;;23.30;99.90;;;;;;5105967;28;20716;-70
2022/08/26 04:06:38;;;;;;;11.38;8.57;;;23.30;99.90;;;;;;5106336;28;20202;-70
2022/08/26 04:09:08;;;;;;;12.55;8.40;;;23.30;99.90;;;;;;5107280;28;20282;-70
2022/08/26 04:11:38;;;;;;;19.33;9.05;;;23.30;99.90;;;;;;5108724;28;20222;-70
2022/08/26 04:14:08;;;;;;;14.70;8.32;;;23.20;99.90;;;;;;5106566;28;20232;-69
2022/08/26 04:16:36;;;;;;;13.98;8.70;;;23.30;99.90;;;;;;5106454;28;20209;-70
2022/08/26 04:19:06;;;;;;;12.07;8.73;;;23.20;99.90;;;;;;5102910;28;20213;-70
2022/08/26 04:21:33;;;;;;;16.60;8.73;;;23.20;99.90;;;;;;5109184;28;20214;-70
2022/08/26 04:24:00;;;;;;;12.35;8.30;;;23.20;99.90;;;;;;5106312;28;20946;-70
2022/08/26 04:26:43;;;;;;;12.20;8.50;;;23.20;99.90;;;;;;5108896;27;20290;-70
2022/08/26 04:29:13;;;;;;;18.75;9.27;;;23.20;99.90;;;;;;5107017;28;20209;-70
2022/08/26 04:31:41;;;;;;;12.13;8.45;;;23.20;99.90;;;;;;5108151;28;20202;-70
2022/08/26 04:34:09;;;;;;;11.35;8.65;;;23.20;99.90;;;;;;5108660;28;20217;-70
2022/08/26 04:36:48;;;;;;;15.65;9.35;;;23.20;99.90;;;;;;5106411;28;20202;-70
2022/08/26 04:39:16;;;;;;;14.70;9.45;;;23.20;99.90;;;;;;5107083;28;20198;-70
2022/08/26 04:41:44;;;;;;;15.98;8.90;;;23.30;99.90;;;;;;5103577;28;20251;-70
2022/08/26 04:44:11;;;;;;;15.85;9.07;;;23.30;99.90;;;;;;5107721;28;20224;-70
2022/08/26 04:46:38;;;;;;;14.43;9.20;;;23.30;99.90;;;;;;5107400;28;20209;-70
2022/08/26 04:49:07;;;;;;;13.93;8.70;;;23.20;99.90;;;;;;5108458;27;20202;-70
2022/08/26 04:51:35;;;;;;;16.63;9.43;;;23.20;99.90;;;;;;5108015;28;20259;-70
2022/08/26 04:54:02;;;;;;;16.05;9.15;;;23.20;99.90;;;;;;5108536;28;20202;-70
2022/08/26 04:56:32;;;;;;;15.90;9.98;;;23.20;99.90;;;;;;5108011;28;20194;-70
2022/08/26 04:58:59;;;;;;;15.77;8.65;;;23.30;99.90;;;;;;5107994;28;20198;-70
2022/08/26 05:01:26;;;;;;;14.38;9.00;;;23.20;99.90;;;;;;5107946;28;20194;-70
2022/08/26 05:03:53;;;;;;;13.70;9.43;;;23.20;99.90;;;;;;5106736;28;20816;-70
2022/08/26 05:06:37;;;;;;;16.60;8.90;;;23.20;99.90;;;;;;5107869;28;20230;-70
2022/08/26 05:09:04;;;;;;;11.25;9.13;;;23.20;99.90;;;;;;5105274;28;20231;-70
2022/08/26 05:11:31;;;;;;;14.25;9.35;;;23.20;99.90;;;;;;5107936;28;20202;-70
2022/08/26 05:13:57;;;;;;;14.30;10.00;;;23.30;99.90;;;;;;5106919;28;20803;-70
2022/08/26 05:16:24;;;;;;;14.60;9.65;;;23.30;99.90;;;;;;5102223;28;20774;-70
2022/08/26 05:18:52;;;;;;;17.58;10.18;;;23.20;99.90;;;;;;5107262;28;20194;-70
2022/08/26 05:21:25;;;;;;;16.55;9.50;;;23.20;99.90;;;;;;5106883;28;20622;-70
2022/08/26 05:23:54;;;;;;;14.50;10.10;;;23.30;99.90;;;;;;5106001;28;20241;-70
2022/08/26 05:26:33;;;;;;;17.58;9.95;;;23.30;99.90;;;;;;5107534;28;20198;-70
2022/08/26 05:29:00;;;;;;;19.70;10.40;;;23.30;99.90;;;;;;5107062;28;20220;-71
2022/08/26 05:31:36;;;;;;;18.70;9.73;;;23.30;99.90;;;;;;5105447;28;20208;-71
2022/08/26 05:34:03;;;;;;;20.33;10.27;;;23.40;99.90;;;;;;5107141;28;20194;-70
2022/08/26 05:36:33;;;;;;;16.92;9.63;;;23.40;99.90;;;;;;5107355;28;20233;-70
2022/08/26 05:39:02;;;;;;;16.02;9.45;;;23.40;99.90;;;;;;5104155;28;20206;-70
2022/08/26 05:41:31;;;;;;;13.30;9.80;;;23.40;99.90;;;;;;5107196;28;20620;-71
2022/08/26 05:44:00;;;;;;;22.40;10.30;;;23.50;99.90;;;;;;5106387;28;20233;-71
2022/08/26 05:46:33;;;;;;;15.05;9.65;;;23.40;99.90;;;;;;5107037;28;20200;-70
2022/08/26 05:49:01;;;;;;;17.73;10.07;;;23.40;99.90;;;;;;5106303;28;20186;-70
2022/08/26 05:51:34;;;;;;;14.23;9.80;;;23.40;99.90;;;;;;5106563;28;20221;-70
2022/08/26 05:54:03;;;;;;;17.85;9.50;;;23.40;99.90;;;;;;5106885;28;20190;-70
2022/08/26 05:56:29;;;;;;;17.08;9.63;;;23.40;99.90;;;;;;5106877;28;20194;-71
2022/08/26 05:58:57;;;;;;;23.80;10.45;;;23.40;99.90;;;;;;5106307;28;20210;-70
2022/08/26 06:01:26;;;;;;;13.27;9.55;;;23.40;99.90;;;;;;5102602;28;20206;-70
2022/08/26 06:03:55;;;;;;;18.85;9.77;;;23.40;99.90;;;;;;5106431;28;20206;-70
2022/08/26 06:06:25;;;;;;;21.65;10.30;;;23.50;99.90;;;;;;5107279;28;20208;-71
2022/08/26 06:08:53;;;;;;;14.40;9.45;;;23.50;99.90;;;;;;5105759;28;20206;-70
2022/08/26 06:11:39;;;;;;;15.68;10.50;;;23.50;99.90;;;;;;5106948;28;20222;-70
2022/08/26 06:14:07;;;;;;;17.67;9.63;;;23.50;99.90;;;;;;5103850;28;20206;-70
2022/08/26 06:16:37;;;;;;;14.07;9.35;;;23.50;99.90;;;;;;5106542;28;20248;-70
2022/08/26 06:19:06;;;;;;;18.67;9.88;;;23.50;99.90;;;;;;5102083;28;20194;-70
2022/08/26 06:21:34;;;;;;;14.93;9.93;;;23.50;99.90;;;;;;5106767;28;20216;-70
2022/08/26 06:26:52;;;;;;;15.52;9.57;;;23.60;99.90;;;;;;5104872;28;20209;-70
2022/08/26 06:29:21;;;;;;;18.17;10.25;;;23.60;99.90;;;;;;5106029;28;20204;-70
2022/08/26 06:31:48;;;;;;;16.35;10.50;;;23.70;99.90;;;;;;5107029;28;20215;-71
2022/08/26 06:34:16;;;;;;;18.42;10.18;;;23.80;99.90;;;;;;5106557;28;20209;-70
2022/08/26 06:36:44;;;;;;;18.50;10.02;;;23.80;99.90;;;;;;5102481;28;20288;-71
2022/08/26 06:39:14;;;;;;;20.75;10.25;;;23.90;99.90;;;;;;5100615;28;20221;-71
2022/08/26 06:41:42;;;;;;;33.60;12.02;;;24.00;99.90;;;;;;5106770;28;20227;-70
2022/08/26 06:44:12;;;;;;;25.58;10.77;;;24.00;99.90;;;;;;5106694;28;20229;-70
2022/08/26 06:46:39;;;;;;;14.68;10.10;;;24.10;99.90;;;;;;5105130;28;20202;-71
2022/08/26 06:49:07;;;;;;;16.90;9.43;;;24.10;99.90;;;;;;5106487;28;20190;-71
2022/08/26 06:51:36;;;;;;;16.48;10.05;;;24.20;99.90;;;;;;5092369;28;20242;-70
2022/08/26 06:54:04;;;;;;;18.58;9.38;;;24.30;99.90;;;;;;5103816;28;20392;-70
2022/08/26 06:56:35;;;;;;;16.35;10.32;;;24.30;99.90;;;;;;5093317;28;20285;-70
2022/08/26 06:59:02;;;;;;;23.88;10.85;;;24.40;99.90;;;;;;5098087;28;20195;-70
2022/08/26 07:01:33;;;;;;;17.77;10.07;;;24.40;99.90;;;;;;5103118;28;20751;-70
2022/08/26 07:04:03;;;;;;;16.85;10.23;;;24.40;99.90;;;;;;5106322;28;20645;-70
2022/08/26 07:06:31;;;;;;;18.45;10.88;;;24.40;99.90;;;;;;5106515;28;20754;-70
2022/08/26 07:09:02;;;;;;;20.73;10.25;;;24.50;99.90;;;;;;5105338;28;20782;-69
2022/08/26 07:11:30;;;;;;;18.33;9.82;;;24.50;99.90;;;;;;5107518;28;20234;-69
2022/08/26 07:13:57;;;;;;;20.10;10.20;;;24.50;99.90;;;;;;5110033;28;20209;-67
2022/08/26 07:16:26;;;;;;;16.17;10.32;;;24.60;99.90;;;;;;5110225;28;20241;-68
2022/08/26 07:18:55;;;;;;;15.20;9.48;;;24.60;99.90;;;;;;5110420;28;20271;-68
2022/08/26 07:21:25;;;;;;;22.40;9.98;;;24.60;99.90;;;;;;5109243;28;20206;-70
2022/08/26 07:23:52;;;;;;;23.58;10.57;;;24.70;99.90;;;;;;5103036;28;20213;-68
2022/08/26 07:26:32;;;;;;;18.13;10.40;;;24.70;99.90;;;;;;5109491;28;20236;-68
2022/08/26 07:29:00;;;;;;;19.13;9.98;;;24.80;99.90;;;;;;5108331;28;20198;-68
2022/08/26 07:31:29;;;;;;;18.02;9.40;;;24.80;99.90;;;;;;5105148;28;20202;-68
2022/08/26 07:33:57;;;;;;;21.00;9.57;;;24.90;99.90;;;;;;5104307;28;20194;-69
2022/08/26 07:36:36;;;;;;;29.42;10.50;;;24.90;99.90;;;;;;5109348;28;20209;-69
2022/08/26 07:39:04;;;;;;;23.30;8.73;;;25.00;99.90;;;;;;5109436;28;20197;-68
2022/08/26 07:41:30;;;;;;;20.40;9.38;;;25.00;99.90;;;;;;5108764;28;20376;-68
2022/08/26 07:43:58;;;;;;;18.77;9.45;;;25.10;99.90;;;;;;5110166;28;20217;-68
2022/08/26 07:46:29;;;;;;;28.60;10.05;;;25.10;99.90;;;;;;5098828;28;20233;-68
2022/08/26 07:48:58;;;;;;;23.17;9.23;;;25.20;99.90;;;;;;5093349;28;20213;-68
2022/08/26 07:51:25;;;;;;;22.13;9.18;;;25.20;99.90;;;;;;5109209;28;20236;-68
2022/08/26 07:53:53;;;;;;;20.00;9.52;;;25.30;99.90;;;;;;5098153;28;20218;-68
2022/08/26 07:56:20;;;;;;;23.30;9.80;;;25.30;99.90;;;;;;5106839;28;20210;-68
2022/08/26 07:58:47;;;;;;;22.25;9.63;;;25.40;99.90;;;;;;5109277;28;20210;-68
2022/08/26 08:01:32;;;;;;;19.75;8.07;;;25.40;99.90;;;;;;5105890;28;20902;-68
2022/08/26 08:04:00;;;;;;;23.27;9.02;;;25.50;99.90;;;;;;5096218;28;20204;-68
2022/08/26 08:06:27;;;;;;;22.13;9.57;;;25.50;99.90;;;;;;5100559;28;20231;-68
2022/08/26 08:08:54;;;;;;;25.92;8.57;;;25.60;99.90;;;;;;5099240;28;20668;-68
2022/08/26 08:11:32;;;;;;;24.40;8.32;;;25.60;99.90;;;;;;5109230;28;20214;-68
2022/08/26 08:14:00;;;;;;;15.77;7.68;;;25.70;99.90;;;;;;5109068;28;20194;-68
2022/08/26 08:16:28;;;;;;;20.80;7.25;;;25.70;99.90;;;;;;5108797;28;20212;-68
2022/08/26 08:18:56;;;;;;;26.17;7.75;;;25.80;99.90;;;;;;5092308;28;20206;-68
2022/08/26 08:21:24;;;;;;;17.42;6.80;;;25.90;99.90;;;;;;5108254;28;20582;-68
2022/08/26 08:23:52;;;;;;;16.85;7.20;;;25.90;99.90;;;;;;5108877;28;20206;-68
2022/08/26 08:26:35;;;;;;;13.93;6.70;;;26.00;99.90;;;;;;5103677;27;20230;-68
2022/08/26 08:29:01;;;;;;;18.17;7.30;;;26.00;99.90;;;;;;5098268;28;20245;-69
2022/08/26 08:31:31;;;;;;;19.42;8.32;;;26.00;99.90;;;;;;5098439;28;20202;-69
2022/08/26 08:33:57;;;;;;;17.00;8.10;;;26.10;99.90;;;;;;5103127;28;20680;-69
2022/08/26 08:36:26;;;;;;;19.02;7.47;;;26.20;99.90;;;;;;5106197;28;20210;-69
2022/08/26 08:38:52;;;;;;;23.95;7.68;;;26.30;99.90;;;;;;5102761;28;20205;-69
2022/08/26 08:41:40;;;;;;;17.95;7.55;;;26.40;99.90;;;;;;5108105;28;20672;-69
2022/08/26 08:44:10;;;;;;;16.70;6.97;;;26.50;99.90;;;;;;5105690;28;20293;-69
2022/08/26 08:46:38;;;;;;;20.08;7.30;;;26.60;99.90;;;;;;5106109;28;20226;-69
2022/08/26 08:49:05;;;;;;;16.88;6.88;;;26.60;99.90;;;;;;5106764;28;20206;-69
2022/08/26 08:51:44;;;;;;;22.60;8.30;;;26.60;99.90;;;;;;5107634;28;20230;-69
2022/08/26 08:54:11;;;;;;;20.65;7.57;;;26.70;99.90;;;;;;5108615;28;20288;-69
2022/08/26 08:56:42;;;;;;;16.45;6.95;;;26.70;99.90;;;;;;5108214;28;20199;-69
2022/08/26 08:59:15;;;;;;;20.40;7.35;;;26.80;99.90;;;;;;5108321;28;20230;-69
2022/08/26 09:01:53;;;;;;;19.80;7.40;;;26.80;99.90;;;;;;5108010;28;20202;-69
2022/08/26 09:04:43;;;;;;;20.45;7.65;;;26.90;99.90;;;;;;5107011;28;20198;-69
2022/08/26 09:07:18;;;;;;;19.35;7.88;;;27.00;99.90;;;;;;5102066;28;20197;-69
2022/08/26 09:09:48;;;;;;;20.30;6.70;;;27.10;99.90;;;;;;5108193;28;20284;-69
2022/08/26 09:12:20;;;;;;;18.83;7.15;;;27.20;99.90;;;;;;5105987;28;20217;-70
2022/08/26 09:14:48;;;;;;;26.77;7.30;;;27.20;99.90;;;;;;5102793;28;20213;-69
2022/08/26 09:17:30;;;;;;;22.00;7.50;;;27.30;99.90;;;;;;5095004;28;20218;-69
2022/08/26 09:20:09;;;;;;;20.83;7.82;;;27.50;99.90;;;;;;5094037;28;20285;-69
2022/08/26 09:22:38;;;;;;;23.52;7.43;;;27.60;99.90;;;;;;5103462;28;20226;-69
2022/08/26 09:25:08;;;;;;;26.73;8.25;;;27.60;99.90;;;;;;5100423;28;20238;-69
2022/08/26 09:27:44;;;;;;;25.10;7.35;;;27.70;99.90;;;;;;5106491;28;20668;-69
2022/08/26 09:30:14;;;;;;;21.25;7.50;;;27.80;99.90;;;;;;5102935;28;20286;-70
2022/08/26 09:32:40;;;;;;;19.30;7.40;;;27.80;99.90;;;;;;5097857;28;20764;-69
2022/08/26 09:35:11;;;;;;;17.52;7.07;;;27.80;99.90;;;;;;5106774;28;20209;-69
2022/08/26 09:37:42;;;;;;;18.13;7.10;;;27.80;99.90;;;;;;5107267;28;20209;-69
2022/08/26 09:40:17;;;;;;;21.85;7.70;;;27.80;99.90;;;;;;5102546;28;20208;-69
2022/08/26 09:53:05;;;;;;;24.98;7.70;;;27.80;99.90;;;;;;5105947;28;20221;-69
2022/08/26 09:56:10;;;;;;;25.88;7.07;;;27.80;99.90;;;;;;5105538;28;20267;-70
2022/08/26 09:58:39;;;;;;;20.08;6.80;;;27.90;99.90;;;;;;5101992;28;20204;-70
2022/08/26 10:01:08;;;;;;;25.58;7.00;;;28.00;99.90;;;;;;5094979;28;20207;-70
2022/08/26 10:03:37;;;;;;;21.25;7.05;;;28.10;99.90;;;;;;5106075;28;20202;-69
2022/08/26 10:06:06;;;;;;;35.85;7.85;;;28.20;99.90;;;;;;5104618;28;20345;-70
2022/08/26 10:08:41;;;;;;;23.52;7.00;;;28.30;99.90;;;;;;5106552;28;20198;-69
2022/08/26 10:11:39;;;;;;;21.13;7.30;;;28.50;99.90;;;;;;5105946;28;20189;-69
2022/08/26 10:14:13;;;;;;;25.35;6.57;;;28.70;99.90;;;;;;5105590;28;20206;-69
2022/08/26 10:16:45;;;;;;;25.40;7.28;;;28.80;99.90;;;;;;5104471;28;20613;-69
2022/08/26 10:19:16;;;;;;;20.48;7.00;;;28.90;99.90;;;;;;5105089;28;20229;-69
2022/08/26 10:21:50;;;;;;;27.58;7.03;;;29.00;99.90;;;;;;5104006;28;20712;-69
2022/08/26 10:24:23;;;;;;;22.60;7.30;;;29.10;99.90;;;;;;5102828;28;20201;-70
2022/08/26 10:27:00;;;;;;;31.65;7.78;;;29.10;99.90;;;;;;5107068;28;20214;-70
2022/08/26 10:29:35;;;;;;;24.77;7.70;;;29.00;99.90;;;;;;5106845;28;20202;-70
2022/08/26 10:32:09;;;;;;;29.48;8.02;;;29.10;99.90;;;;;;5104587;28;20664;-69
2022/08/26 10:34:36;;;;;;;22.63;7.60;;;29.10;99.90;;;;;;5101411;28;20289;-69
2022/08/26 10:37:07;;;;;;;21.58;6.80;;;29.10;99.90;;;;;;5106815;28;20234;-69
2022/08/26 10:39:44;;;;;;;24.00;7.30;;;29.10;99.90;;;;;;5103633;28;20213;-69
2022/08/26 10:42:34;;;;;;;24.38;6.95;;;29.20;99.90;;;;;;5106777;28;20216;-69
2022/08/26 10:45:07;;;;;;;38.88;8.55;;;29.20;99.90;;;;;;5106599;28;20222;-69
2022/08/26 10:47:40;;;;;;;62.47;11.77;;;29.20;99.90;;;;;;5109871;28;20202;-69
2022/08/26 10:50:07;;;;;;;24.63;7.15;;;29.10;99.90;;;;;;5109092;28;20582;-69
2022/08/26 10:52:48;;;;;;;26.10;7.28;;;29.00;99.90;;;;;;5105200;28;20321;-69
2022/08/26 10:55:24;;;;;;;29.75;7.18;;;28.90;99.90;;;;;;5110022;28;20200;-69
2022/08/26 10:57:58;;;;;;;33.55;8.13;;;28.80;99.90;;;;;;5108647;27;20216;-69
2022/08/26 11:03:35;;;;;;;22.83;7.43;;;28.60;99.90;;;;;;5107566;28;20271;-69
2022/08/26 11:06:22;;;;;;;29.80;7.75;;;28.50;99.90;;;;;;5108074;28;20224;-69
2022/08/26 11:08:51;;;;;;;23.38;7.68;;;28.40;99.90;;;;;;5109329;28;20198;-69
2022/08/26 11:14:42;;;;;;;12.20;4.18;;;28.30;99.90;;;;;;5109712;28;20330;-69
2022/08/26 11:17:54;;;;;;;14.10;4.10;;;28.00;99.90;;;;;;5107980;28;20224;-68
2022/08/26 11:20:36;;;;;;;7.22;4.13;;;27.60;99.90;;;;;;5109644;28;20208;-68
2022/08/26 11:23:37;;;;;;;6.78;3.45;;;27.30;99.90;;;;;;5106944;28;20197;-68
2022/08/26 11:26:34;;;;;;;8.02;3.25;;;27.00;99.90;;;;;;5106946;28;20237;-68
2022/08/26 11:29:01;;;;;;;7.88;2.63;;;26.60;99.90;;;;;;5107789;28;20202;-69
2022/08/26 11:31:59;;;;;;;9.95;2.53;;;26.50;99.90;;;;;;5108904;28;20203;-69
2022/08/26 11:34:51;;;;;;;8.25;3.17;;;26.30;99.90;;;;;;5108572;28;20636;-69
2022/08/26 11:37:22;;;;;;;6.00;3.30;;;26.00;99.90;;;;;;5107210;28;20932;-69
2022/08/26 11:39:53;;;;;;;7.18;3.85;;;26.00;99.90;;;;;;5108693;28;20202;-69
2022/08/26 11:42:29;;;;;;;9.30;3.25;;;25.90;99.90;;;;;;5109485;28;20236;-69
2022/08/26 11:44:57;;;;;;;7.45;3.70;;;25.70;99.90;;;;;;5105485;28;20205;-69
2022/08/26 11:47:30;;;;;;;9.65;4.30;;;25.40;99.90;;;;;;5107598;28;20238;-69
2022/08/26 11:50:16;;;;;;;5.53;4.28;;;25.20;99.90;;;;;;5104824;28;20738;-69
2022/08/26 11:52:53;;;;;;;4.80;3.70;;;24.90;99.90;;;;;;5107850;28;20226;-69
2022/08/26 11:55:20;;;;;;;7.43;3.95;;;24.80;99.90;;;;;;5104062;28;20595;-69
2022/08/26 11:57:51;;;;;;;6.50;4.75;;;24.90;99.90;;;;;;5091259;28;20213;-70
2022/08/26 12:00:20;;;;;;;7.57;4.00;;;25.00;99.90;;;;;;5108962;28;20206;-70
2022/08/26 12:02:47;;;;;;;4.65;3.45;;;25.00;99.90;;;;;;5103694;28;20213;-71
2022/08/26 12:05:16;;;;;;;6.47;3.90;;;25.10;99.90;;;;;;5094017;27;20214;-70
2022/08/26 12:07:49;;;;;;;9.02;4.10;;;25.20;99.90;;;;;;5103188;28;20251;-71
2022/08/26 12:10:28;;;;;;;5.85;3.85;;;25.20;99.90;;;;;;5113798;27;20656;-71
2022/08/26 12:12:57;;;;;;;7.57;3.55;;;25.10;99.90;;;;;;5093062;27;20198;-71
2022/08/26 12:15:26;;;;;;;5.40;4.10;;;24.80;99.90;;;;;;5103277;27;20206;-72
2022/08/26 12:17:53;;;;;;;10.48;3.78;;;24.50;99.90;;;;;;5107106;28;20673;-71
2022/08/26 12:20:44;;;;;;;5.90;4.18;;;24.50;99.90;;;;;;5107087;28;20675;-71
2022/08/26 12:23:26;;;;;;;4.03;3.63;;;24.50;99.90;;;;;;5107568;27;20206;-71
2022/08/26 12:26:02;;;;;;;6.45;4.28;;;24.60;99.90;;;;;;5107043;28;20190;-71
2022/08/26 12:31:52;;;;;;;6.15;3.60;;;24.90;99.90;;;;;;5103335;27;20600;-71
2022/08/26 12:34:19;;;;;;;3.88;3.30;;;25.10;99.90;;;;;;5101903;28;20613;-71
2022/08/26 12:36:49;;;;;;;8.02;3.47;;;25.30;99.90;;;;;;5091143;28;20245;-71
2022/08/26 12:39:25;;;;;;;6.45;3.08;;;25.50;99.90;;;;;;5102115;28;20206;-71
2022/08/26 12:41:56;;;;;;;4.15;3.10;;;25.80;99.90;;;;;;5086942;28;20276;-72
2022/08/26 12:44:44;;;;;;;6.38;3.28;;;26.00;99.90;;;;;;5103372;28;20216;-72
2022/08/26 12:47:18;;;;;;;3.70;3.33;;;26.10;99.90;;;;;;5099924;28;20214;-71
2022/08/26 12:49:46;;;;;;;5.07;3.17;;;26.10;99.90;;;;;;5087054;28;20210;-71
2022/08/26 12:52:32;;;;;;;6.18;3.45;;;26.10;99.90;;;;;;5085955;28;20241;-72
2022/08/26 12:55:01;;;;;;;6.57;3.15;;;26.10;99.90;;;;;;5088657;28;20195;-71
2022/08/26 12:57:33;;;;;;;4.68;3.20;;;26.00;99.90;;;;;;5106713;28;20214;-71
2022/08/26 13:00:30;;;;;;;5.40;3.60;;;26.00;99.90;;;;;;5106714;28;20304;-71
2022/08/26 13:02:57;;;;;;;6.22;3.67;;;26.00;99.90;;;;;;5106315;28;20210;-71
2022/08/26 13:05:27;;;;;;;5.90;2.95;;;25.80;99.90;;;;;;5101233;28;20211;-71
2022/08/26 13:08:15;;;;;;;8.10;3.65;;;25.80;99.90;;;;;;5088068;28;20230;-71
2022/08/26 13:10:44;;;;;;;6.63;4.00;;;25.70;99.90;;;;;;5085978;28;20242;-71
2022/08/26 13:13:12;;;;;;;8.85;4.00;;;25.70;99.90;;;;;;5093696;28;20232;-71
2022/08/26 13:15:39;;;;;;;5.90;4.20;;;25.60;99.90;;;;;;5090453;28;20214;-71
2022/08/26 13:18:06;;;;;;;6.15;3.88;;;25.40;99.90;;;;;;5097275;28;20209;-71
2022/08/26 13:20:34;;;;;;;5.82;3.63;;;25.20;99.90;;;;;;5105111;28;20226;-71
2022/08/26 13:23:01;;;;;;;7.68;3.95;;;25.20;99.90;;;;;;5105817;28;20213;-71
2022/08/26 13:25:28;;;;;;;7.85;4.10;;;25.10;99.90;;;;;;5105672;28;20206;-71